createdAt,value
2018-01-07T00:00:08.827Z,716.22
2018-01-07T00:01:09.297Z,716.30
2018-01-07T00:02:09.770Z,716.29
2018-01-07T00:03:10.242Z,716.27
2018-01-07T00:04:10.714Z,716.22
2018-01-07T00:05:11.187Z,716.27
2018-01-07T00:06:11.658Z,716.21
2018-01-07T00:07:12.135Z,716.26
2018-01-07T00:08:12.605Z,716.26
2018-01-07T00:09:13.075Z,716.30
2018-01-07T00:10:13.548Z,716.36
2018-01-07T00:11:14.020Z,716.25
2018-01-07T00:12:14.492Z,716.18
2018-01-07T00:13:14.964Z,716.16
2018-01-07T00:14:15.437Z,716.07
2018-01-07T00:15:15.909Z,716.10
2018-01-07T00:16:16.381Z,716.20
2018-01-07T00:17:16.853Z,716.14
2018-01-07T00:18:17.326Z,716.17
2018-01-07T00:19:17.798Z,716.33
2018-01-07T00:20:18.273Z,716.23
2018-01-07T00:21:18.742Z,716.19
2018-01-07T00:22:19.215Z,716.30
2018-01-07T00:23:19.688Z,716.33
2018-01-07T00:24:20.158Z,716.33
2018-01-07T00:25:20.632Z,716.09
2018-01-07T00:26:21.108Z,716.08
2018-01-07T00:27:21.578Z,716.25
2018-01-07T00:28:22.049Z,716.37
2018-01-07T00:29:22.522Z,716.10
2018-01-07T00:30:22.992Z,716.16
2018-01-07T00:31:23.466Z,716.26
2018-01-07T00:32:23.939Z,716.29
2018-01-07T00:33:24.410Z,716.27
2018-01-07T00:34:24.887Z,716.36
2018-01-07T00:35:25.354Z,716.34
2018-01-07T00:36:25.824Z,716.26
2018-01-07T00:37:26.299Z,716.29
2018-01-07T00:38:26.773Z,716.31
2018-01-07T00:39:27.243Z,716.43
2018-01-07T00:40:27.717Z,716.31
2018-01-07T00:41:28.189Z,716.38
2018-01-07T00:42:28.660Z,716.49
2018-01-07T00:43:29.132Z,716.51
2018-01-07T00:44:29.604Z,716.44
2018-01-07T00:45:30.077Z,716.48
2018-01-07T00:46:30.550Z,716.35
2018-01-07T00:47:31.022Z,716.30
2018-01-07T00:48:31.493Z,716.47
2018-01-07T00:49:31.969Z,716.61
2018-01-07T00:50:32.440Z,716.34
2018-01-07T00:51:32.916Z,716.35
2018-01-07T00:52:33.384Z,716.34
2018-01-07T00:53:33.855Z,716.36
2018-01-07T00:54:34.378Z,716.50
2018-01-07T00:55:34.802Z,716.54
2018-01-07T00:56:35.276Z,716.49
2018-01-07T00:57:35.744Z,716.39
2018-01-07T00:58:36.220Z,716.53
2018-01-07T00:59:36.690Z,716.44
2018-01-07T01:00:37.161Z,716.55
2018-01-07T01:01:37.634Z,716.53
2018-01-07T01:02:38.111Z,716.35
2018-01-07T01:03:38.579Z,716.49
2018-01-07T01:04:39.049Z,716.54
2018-01-07T01:05:39.524Z,716.49
2018-01-07T01:06:39.996Z,716.56
2018-01-07T01:07:40.470Z,716.47
2018-01-07T01:08:40.941Z,716.49
2018-01-07T01:09:41.412Z,716.46
2018-01-07T01:10:41.884Z,716.50
2018-01-07T01:11:42.357Z,716.45
2018-01-07T01:12:42.827Z,716.56
2018-01-07T01:13:43.300Z,716.47
2018-01-07T01:14:43.774Z,716.61
2018-01-07T01:15:44.245Z,716.60
2018-01-07T01:16:44.720Z,716.41
2018-01-07T01:17:45.190Z,716.57
2018-01-07T01:18:45.665Z,716.58
2018-01-07T01:19:46.136Z,716.51
2018-01-07T01:20:46.606Z,716.58
2018-01-07T01:21:47.078Z,716.68
2018-01-07T01:22:47.553Z,716.68
2018-01-07T01:23:48.025Z,716.67
2018-01-07T01:24:48.498Z,716.58
2018-01-07T01:25:48.968Z,716.75
2018-01-07T01:26:49.444Z,716.72
2018-01-07T01:27:49.915Z,716.63
2018-01-07T01:28:50.384Z,716.71
2018-01-07T01:29:50.858Z,716.74
2018-01-07T01:30:51.331Z,716.75
2018-01-07T01:31:51.803Z,716.84
2018-01-07T01:32:52.279Z,716.62
2018-01-07T01:33:52.745Z,716.55
2018-01-07T01:34:53.218Z,716.82
2018-01-07T01:35:53.692Z,716.85
2018-01-07T01:36:54.165Z,716.74
2018-01-07T01:37:54.635Z,716.82
2018-01-07T01:38:55.110Z,716.75
2018-01-07T01:39:55.580Z,716.84
2018-01-07T01:40:56.054Z,716.69
2018-01-07T01:41:56.523Z,716.82
2018-01-07T01:42:56.996Z,716.80
2018-01-07T01:43:57.470Z,716.89
2018-01-07T01:44:57.940Z,716.91
2018-01-07T01:45:58.414Z,716.77
2018-01-07T01:46:58.891Z,716.78
2018-01-07T01:47:59.361Z,716.91
2018-01-07T01:48:59.830Z,716.84
2018-01-07T01:50:00.304Z,716.94
2018-01-07T01:51:00.776Z,716.76
2018-01-07T01:52:01.247Z,716.86
2018-01-07T01:53:01.718Z,716.97
2018-01-07T01:54:02.191Z,716.78
2018-01-07T01:55:02.663Z,716.81
2018-01-07T01:56:03.136Z,716.82
2018-01-07T01:57:03.607Z,716.92
2018-01-07T01:58:04.080Z,716.91
2018-01-07T01:59:04.553Z,716.80
2018-01-07T02:00:05.026Z,716.92
2018-01-07T02:01:05.496Z,716.74
2018-01-07T02:02:05.970Z,716.92
2018-01-07T02:03:06.442Z,716.89
2018-01-07T02:04:06.914Z,716.92
2018-01-07T02:05:07.386Z,716.92
2018-01-07T02:06:07.859Z,716.98
2018-01-07T02:07:08.332Z,716.92
2018-01-07T02:08:08.810Z,716.91
2018-01-07T02:09:09.274Z,716.93
2018-01-07T02:10:09.748Z,716.96
2018-01-07T02:11:10.220Z,717.05
2018-01-07T02:12:10.693Z,716.95
2018-01-07T02:13:11.164Z,717.04
2018-01-07T02:14:11.637Z,716.98
2018-01-07T02:15:12.108Z,716.90
2018-01-07T02:16:12.580Z,716.88
2018-01-07T02:17:13.059Z,716.73
2018-01-07T02:18:13.525Z,716.78
2018-01-07T02:19:13.998Z,716.94
2018-01-07T02:20:14.470Z,717.00
2018-01-07T02:21:14.944Z,716.90
2018-01-07T02:22:15.414Z,716.80
2018-01-07T02:23:15.886Z,716.90
2018-01-07T02:24:16.360Z,716.89
2018-01-07T02:25:16.829Z,716.91
2018-01-07T02:26:17.303Z,716.74
2018-01-07T02:27:17.774Z,716.94
2018-01-07T02:28:18.249Z,716.97
2018-01-07T02:29:18.719Z,717.01
2018-01-07T02:30:19.193Z,716.98
2018-01-07T02:31:19.665Z,716.88
2018-01-07T02:32:20.138Z,717.01
2018-01-07T02:33:20.609Z,717.03
2018-01-07T02:34:21.082Z,716.89
2018-01-07T02:35:21.554Z,716.95
2018-01-07T02:36:22.025Z,716.96
2018-01-07T02:37:22.501Z,717.09
2018-01-07T02:38:22.973Z,717.09
2018-01-07T02:39:23.441Z,717.08
2018-01-07T02:40:23.917Z,717.12
2018-01-07T02:41:24.386Z,717.02
2018-01-07T02:42:24.861Z,717.14
2018-01-07T02:43:25.330Z,717.02
2018-01-07T02:44:25.812Z,717.08
2018-01-07T02:45:26.276Z,717.01
2018-01-07T02:46:26.759Z,717.01
2018-01-07T02:47:27.225Z,717.06
2018-01-07T02:48:27.692Z,717.25
2018-01-07T02:49:28.170Z,717.05
2018-01-07T02:50:28.641Z,717.05
2018-01-07T02:51:29.114Z,716.94
2018-01-07T02:52:29.587Z,717.02
2018-01-07T02:53:30.060Z,717.11
2018-01-07T02:54:30.530Z,717.14
2018-01-07T02:55:30.999Z,717.03
2018-01-07T02:56:31.476Z,717.25
2018-01-07T02:57:31.949Z,717.21
2018-01-07T02:58:32.421Z,717.12
2018-01-07T02:59:32.888Z,717.20
2018-01-07T03:00:33.369Z,717.26
2018-01-07T03:01:33.837Z,717.20
2018-01-07T03:02:34.308Z,717.20
2018-01-07T03:03:34.782Z,717.14
2018-01-07T03:04:35.253Z,717.07
2018-01-07T03:05:35.725Z,717.12
2018-01-07T03:06:36.200Z,717.06
2018-01-07T03:07:36.665Z,717.13
2018-01-07T03:08:37.144Z,717.24
2018-01-07T03:09:37.614Z,717.21
2018-01-07T03:11:38.559Z,717.19
2018-01-07T03:12:39.032Z,717.22
2018-01-07T03:13:39.502Z,717.29
2018-01-07T03:14:39.973Z,717.10
2018-01-07T03:15:40.448Z,717.25
2018-01-07T03:16:40.921Z,717.32
2018-01-07T03:17:41.393Z,717.15
2018-01-07T03:18:41.868Z,717.18
2018-01-07T03:19:42.338Z,717.23
2018-01-07T03:20:42.811Z,717.24
2018-01-07T03:21:43.282Z,717.20
2018-01-07T03:22:43.754Z,717.22
2018-01-07T03:23:44.222Z,717.32
2018-01-07T03:24:44.801Z,717.30
2018-01-07T03:25:45.170Z,717.34
2018-01-07T03:26:45.647Z,717.33
2018-01-07T03:27:46.112Z,717.29
2018-01-07T03:30:47.533Z,717.32
2018-01-07T03:31:48.007Z,717.32
2018-01-07T03:32:48.478Z,717.39
2018-01-07T03:34:49.425Z,717.31
2018-01-07T03:35:49.899Z,717.35
2018-01-07T03:36:50.367Z,717.34
2018-01-07T03:37:50.835Z,717.34
2018-01-07T03:38:51.312Z,717.32
2018-01-07T03:39:51.784Z,717.44
2018-01-07T03:41:52.728Z,717.47
2018-01-07T03:42:53.202Z,717.42
2018-01-07T03:43:53.674Z,717.45
2018-01-07T03:44:54.145Z,717.38
2018-01-07T03:45:54.619Z,717.43
2018-01-07T03:46:55.091Z,717.41
2018-01-07T03:47:55.562Z,717.44
2018-01-07T03:48:56.035Z,717.43
2018-01-07T03:49:56.507Z,717.44
2018-01-07T03:50:56.980Z,717.37
2018-01-07T03:51:57.453Z,717.38
2018-01-07T03:52:57.925Z,717.38
2018-01-07T03:53:58.394Z,717.42
2018-01-07T03:54:58.870Z,717.41
2018-01-07T03:56:59.814Z,717.40
2018-01-07T03:58:00.288Z,717.45
2018-01-07T03:59:00.759Z,717.38
2018-01-07T04:00:01.232Z,717.40
2018-01-07T04:02:02.176Z,717.45
2018-01-07T04:03:02.651Z,717.42
2018-01-07T04:04:03.121Z,717.43
2018-01-07T04:05:03.599Z,717.45
2018-01-07T04:06:04.066Z,717.47
2018-01-07T04:07:04.535Z,717.51
2018-01-07T04:08:05.010Z,717.45
2018-01-07T04:09:05.487Z,717.48
2018-01-07T04:10:05.955Z,717.37
2018-01-07T04:11:06.424Z,717.45
2018-01-07T04:12:06.903Z,717.46
2018-01-07T04:13:07.375Z,717.41
2018-01-07T04:15:08.317Z,717.42
2018-01-07T04:16:08.791Z,717.40
2018-01-07T04:18:09.729Z,717.34
2018-01-07T04:19:10.210Z,717.40
2018-01-07T04:20:10.691Z,717.44
2018-01-07T04:21:11.152Z,717.41
2018-01-07T04:22:11.619Z,717.45
2018-01-07T04:23:12.096Z,717.50
2018-01-07T04:25:13.044Z,717.50
2018-01-07T04:26:13.514Z,717.48
2018-01-07T04:27:13.986Z,717.53
2018-01-07T04:29:14.931Z,717.51
2018-01-07T04:30:15.406Z,717.55
2018-01-07T04:31:15.876Z,717.44
2018-01-07T04:33:16.845Z,717.52
2018-01-07T04:34:17.295Z,717.51
2018-01-07T04:35:17.764Z,717.58
2018-01-07T04:36:18.238Z,717.63
2018-01-07T04:37:18.711Z,717.65
2018-01-07T04:38:19.181Z,717.68
2018-01-07T04:39:19.656Z,717.63
2018-01-07T04:40:20.126Z,717.61
2018-01-07T04:42:21.068Z,717.66
2018-01-07T04:43:21.544Z,717.66
2018-01-07T04:44:22.067Z,717.64
2018-01-07T04:46:22.959Z,717.69
2018-01-07T04:47:23.438Z,717.71
2018-01-07T04:48:23.906Z,717.72
2018-01-07T04:49:24.373Z,717.71
2018-01-07T04:50:24.849Z,717.73
2018-01-07T04:51:25.321Z,717.72
2018-01-07T04:52:25.796Z,717.68
2018-01-07T04:53:26.261Z,717.70
2018-01-07T04:54:38.420Z,717.67
2018-01-07T04:55:27.210Z,717.68
2018-01-07T04:56:27.682Z,717.65
2018-01-07T04:57:28.154Z,717.72
2018-01-07T04:58:28.626Z,717.71
2018-01-07T04:59:29.098Z,717.69
2018-01-07T05:00:29.565Z,717.72
2018-01-07T05:02:30.516Z,717.71
2018-01-07T05:04:31.460Z,717.70
2018-01-07T05:05:31.983Z,717.70
2018-01-07T05:06:32.405Z,717.73
2018-01-07T05:07:32.875Z,717.77
2018-01-07T05:08:33.345Z,717.78
2018-01-07T05:09:33.820Z,717.77
2018-01-07T05:10:34.292Z,717.76
2018-01-07T05:11:34.765Z,717.77
2018-01-07T05:12:35.239Z,717.80
2018-01-07T05:13:35.709Z,717.83
2018-01-07T05:14:36.177Z,717.78
2018-01-07T05:15:36.653Z,717.77
2018-01-07T05:16:37.126Z,717.75
2018-01-07T05:17:37.599Z,717.78
2018-01-07T05:18:38.070Z,717.81
2018-01-07T05:20:39.013Z,717.78
2018-01-07T05:21:39.481Z,717.80
2018-01-07T05:22:39.959Z,717.81
2018-01-07T05:23:40.432Z,717.85
2018-01-07T05:24:40.903Z,717.87
2018-01-07T05:25:41.377Z,717.88
2018-01-07T05:26:41.842Z,717.89
2018-01-07T05:28:42.794Z,717.92
2018-01-07T05:29:43.264Z,717.92
2018-01-07T05:30:43.730Z,717.97
2018-01-07T05:31:44.209Z,717.96
2018-01-07T05:32:44.682Z,717.93
2018-01-07T05:33:45.152Z,717.99
2018-01-07T05:34:45.627Z,717.97
2018-01-07T05:35:46.098Z,717.96
2018-01-07T05:36:46.569Z,718.00
2018-01-07T05:37:47.038Z,717.99
2018-01-07T05:38:47.513Z,717.99
2018-01-07T05:39:47.985Z,718.02
2018-01-07T05:40:48.459Z,717.98
2018-01-07T05:41:48.930Z,718.04
2018-01-07T05:42:49.403Z,718.00
2018-01-07T05:43:49.878Z,717.98
2018-01-07T05:44:50.348Z,718.04
2018-01-07T05:45:50.820Z,718.04
2018-01-07T05:47:51.764Z,718.01
2018-01-07T05:48:52.238Z,718.04
2018-01-07T05:49:52.704Z,718.06
2018-01-07T05:50:53.180Z,718.07
2018-01-07T05:51:53.653Z,718.08
2018-01-07T05:52:54.131Z,718.10
2018-01-07T05:53:54.594Z,718.07
2018-01-07T05:54:55.072Z,718.10
2018-01-07T05:55:55.543Z,718.10
2018-01-07T05:56:56.015Z,718.11
2018-01-07T05:57:56.488Z,718.06
2018-01-07T05:58:56.960Z,718.08
2018-01-07T05:59:57.432Z,718.14
2018-01-07T06:00:57.898Z,718.13
2018-01-07T06:02:58.849Z,718.15
2018-01-07T06:03:59.320Z,718.15
2018-01-07T06:06:00.266Z,718.16
2018-01-07T06:07:00.737Z,718.13
2018-01-07T06:08:01.209Z,718.15
2018-01-07T06:09:01.686Z,718.18
2018-01-07T06:10:02.155Z,718.15
2018-01-07T06:12:03.095Z,718.15
2018-01-07T06:13:03.572Z,718.24
2018-01-07T06:14:04.045Z,718.19
2018-01-07T06:15:04.518Z,718.13
2018-01-07T06:16:04.990Z,718.22
2018-01-07T06:18:05.935Z,718.18
2018-01-07T06:19:06.404Z,718.20
2018-01-07T06:20:06.879Z,718.14
2018-01-07T06:21:07.345Z,718.22
2018-01-07T06:22:07.825Z,718.16
2018-01-07T06:23:08.295Z,718.21
2018-01-07T06:26:09.712Z,718.21
2018-01-07T06:27:10.189Z,718.13
2018-01-07T06:28:10.650Z,718.19
2018-01-07T06:29:11.127Z,718.24
2018-01-07T06:30:11.601Z,718.21
2018-01-07T06:31:12.070Z,718.22
2018-01-07T06:32:12.544Z,718.26
2018-01-07T06:33:13.016Z,718.32
2018-01-07T06:34:13.488Z,718.32
2018-01-07T06:36:14.434Z,718.31
2018-01-07T06:37:14.905Z,718.32
2018-01-07T06:38:15.376Z,718.32
2018-01-07T06:39:15.850Z,718.35
2018-01-07T06:40:16.321Z,718.37
2018-01-07T06:41:16.796Z,718.45
2018-01-07T06:43:17.734Z,718.42
2018-01-07T06:44:18.209Z,718.42
2018-01-07T06:45:18.682Z,718.41
2018-01-07T06:46:19.155Z,718.40
2018-01-07T06:47:19.626Z,718.31
2018-01-07T06:48:20.097Z,718.29
2018-01-07T06:50:21.039Z,718.32
2018-01-07T06:51:21.514Z,718.39
2018-01-07T06:52:21.986Z,718.33
2018-01-07T06:53:22.458Z,718.35
2018-01-07T06:54:22.930Z,718.39
2018-01-07T06:55:23.405Z,718.35
2018-01-07T06:56:23.874Z,718.38
2018-01-07T06:57:24.347Z,718.46
2018-01-07T06:58:24.819Z,718.42
2018-01-07T06:59:25.285Z,718.43
2018-01-07T07:00:25.764Z,718.44
2018-01-07T07:01:26.237Z,718.44
2018-01-07T07:02:26.710Z,718.47
2018-01-07T07:03:27.174Z,718.45
2018-01-07T07:04:27.651Z,718.40
2018-01-07T07:05:28.124Z,718.45
2018-01-07T07:06:28.596Z,718.39
2018-01-07T07:07:29.067Z,718.52
2018-01-07T07:08:29.540Z,718.51
2018-01-07T07:09:30.013Z,718.50
2018-01-07T07:10:30.480Z,718.55
2018-01-07T07:12:31.427Z,718.53
2018-01-07T07:13:31.900Z,718.52
2018-01-07T07:14:32.368Z,718.56
2018-01-07T07:15:32.844Z,718.48
2018-01-07T07:16:33.315Z,718.53
2018-01-07T07:17:33.789Z,718.58
2018-01-07T07:18:34.262Z,718.61
2018-01-07T07:19:34.736Z,718.65
2018-01-07T07:20:35.205Z,718.60
2018-01-07T07:21:35.677Z,718.61
2018-01-07T07:22:36.151Z,718.70
2018-01-07T07:23:36.618Z,718.68
2018-01-07T07:24:37.093Z,718.69
2018-01-07T07:25:37.565Z,718.70
2018-01-07T07:26:38.040Z,718.69
2018-01-07T07:27:38.510Z,718.75
2018-01-07T07:28:38.982Z,718.75
2018-01-07T07:29:39.453Z,718.82
2018-01-07T07:30:39.923Z,718.80
2018-01-07T07:32:40.869Z,718.80
2018-01-07T07:33:41.341Z,718.81
2018-01-07T07:34:41.815Z,718.83
2018-01-07T07:35:42.285Z,718.82
2018-01-07T07:36:42.808Z,718.83
2018-01-07T07:37:43.225Z,718.81
2018-01-07T07:38:43.702Z,718.83
2018-01-07T07:39:44.174Z,718.84
2018-01-07T07:40:44.647Z,718.89
2018-01-07T07:41:56.604Z,718.91
2018-01-07T07:42:45.589Z,718.94
2018-01-07T07:43:46.061Z,718.93
2018-01-07T07:44:46.531Z,718.93
2018-01-07T07:45:47.005Z,718.98
2018-01-07T07:46:47.478Z,719.04
2018-01-07T07:47:47.950Z,719.00
2018-01-07T07:48:48.418Z,718.97
2018-01-07T07:49:48.895Z,718.96
2018-01-07T07:50:49.366Z,718.98
2018-01-07T07:51:49.838Z,719.00
2018-01-07T07:52:50.309Z,719.01
2018-01-07T07:53:50.784Z,719.01
2018-01-07T07:55:51.721Z,719.01
2018-01-07T07:56:52.198Z,718.97
2018-01-07T07:57:52.672Z,719.02
2018-01-07T07:58:53.144Z,719.04
2018-01-07T07:59:53.613Z,719.01
2018-01-07T08:00:54.085Z,719.06
2018-01-07T08:01:54.557Z,719.03
2018-01-07T08:02:55.033Z,719.08
2018-01-07T08:03:55.500Z,719.12
2018-01-07T08:04:55.976Z,719.13
2018-01-07T08:05:56.440Z,719.13
2018-01-07T08:06:56.922Z,719.17
2018-01-07T08:07:57.389Z,719.15
2018-01-07T08:08:57.863Z,719.16
2018-01-07T08:09:58.375Z,719.19
2018-01-07T08:10:58.808Z,719.20
2018-01-07T08:11:59.280Z,719.26
2018-01-07T08:12:59.748Z,719.26
2018-01-07T08:14:00.224Z,719.33
2018-01-07T08:15:00.697Z,719.29
2018-01-07T08:17:01.633Z,719.34
2018-01-07T08:20:03.054Z,719.49
2018-01-07T08:22:03.999Z,719.50
2018-01-07T08:23:04.472Z,719.48
2018-01-07T08:24:04.934Z,719.46
2018-01-07T08:25:05.415Z,719.45
2018-01-07T08:26:05.884Z,719.49
2018-01-07T08:27:06.358Z,719.44
2018-01-07T08:28:06.822Z,719.48
2018-01-07T08:29:07.305Z,719.39
2018-01-07T08:30:07.777Z,719.43
2018-01-07T08:31:08.244Z,719.45
2018-01-07T08:32:08.716Z,719.46
2018-01-07T08:33:09.188Z,719.42
2018-01-07T08:34:09.665Z,719.44
2018-01-07T08:35:10.125Z,719.43
2018-01-07T08:36:10.603Z,719.38
2018-01-07T08:37:11.074Z,719.38
2018-01-07T08:38:11.547Z,719.37
2018-01-07T08:39:12.014Z,719.31
2018-01-07T08:40:12.493Z,719.44
2018-01-07T08:41:12.966Z,719.43
2018-01-07T08:43:13.906Z,719.46
2018-01-07T08:44:14.378Z,719.42
2018-01-07T08:45:14.852Z,719.47
2018-01-07T08:47:15.790Z,719.48
2018-01-07T08:48:16.266Z,719.45
2018-01-07T08:49:16.737Z,719.49
2018-01-07T08:50:17.210Z,719.58
2018-01-07T08:51:17.681Z,719.49
2018-01-07T08:52:18.152Z,719.50
2018-01-07T08:53:18.624Z,719.51
2018-01-07T08:54:19.092Z,719.53
2018-01-07T08:55:19.568Z,719.57
2018-01-07T08:56:20.044Z,719.48
2018-01-07T08:57:20.514Z,719.49
2018-01-07T09:00:21.928Z,719.59
2018-01-07T09:01:22.396Z,719.55
2018-01-07T09:02:22.873Z,719.62
2018-01-07T09:03:23.343Z,719.61
2018-01-07T09:04:23.817Z,719.63
2018-01-07T09:05:24.286Z,719.59
2018-01-07T09:06:24.771Z,719.63
2018-01-07T09:07:25.233Z,719.60
2018-01-07T09:08:25.704Z,719.57
2018-01-07T09:09:26.176Z,719.59
2018-01-07T09:10:26.649Z,719.65
2018-01-07T09:11:27.123Z,719.62
2018-01-07T09:12:27.591Z,719.63
2018-01-07T09:13:28.059Z,719.64
2018-01-07T09:14:28.537Z,719.71
2018-01-07T09:15:45.777Z,719.80
2018-01-07T09:16:46.249Z,719.76
2018-01-07T09:17:46.715Z,719.81
2018-01-07T09:18:47.191Z,719.80
2018-01-07T09:19:47.663Z,719.82
2018-01-07T09:21:48.603Z,719.81
2018-01-07T09:22:49.076Z,719.75
2018-01-07T09:23:49.552Z,719.79
2018-01-07T09:24:50.027Z,719.83
2018-01-07T09:26:50.968Z,719.79
2018-01-07T09:27:51.436Z,719.80
2018-01-07T09:28:51.911Z,719.86
2018-01-07T09:29:52.384Z,719.91
2018-01-07T09:30:52.857Z,719.84
2018-01-07T09:31:53.324Z,719.89
2018-01-07T09:32:53.799Z,719.78
2018-01-07T09:33:54.272Z,719.83
2018-01-07T09:34:54.745Z,719.80
2018-01-07T09:35:55.217Z,719.81
2018-01-07T09:36:55.692Z,719.81
2018-01-07T09:37:56.160Z,719.77
2018-01-07T09:38:56.630Z,719.77
2018-01-07T09:39:57.104Z,719.75
2018-01-07T09:40:57.577Z,719.81
2018-01-07T09:42:58.520Z,719.74
2018-01-07T09:43:58.994Z,719.74
2018-01-07T09:44:59.465Z,719.74
2018-01-07T09:45:59.938Z,719.77
2018-01-07T09:47:00.409Z,719.65
2018-01-07T09:48:00.881Z,719.58
2018-01-07T09:49:01.355Z,719.73
2018-01-07T09:50:01.828Z,719.63
2018-01-07T09:51:02.301Z,719.70
2018-01-07T09:52:02.773Z,719.64
2018-01-07T09:53:03.243Z,719.63
2018-01-07T09:54:03.714Z,719.64
2018-01-07T09:55:04.183Z,719.76
2018-01-07T09:56:04.660Z,719.78
2018-01-07T09:57:05.132Z,719.75
2018-01-07T09:58:05.604Z,719.64
2018-01-07T09:59:06.076Z,719.64
2018-01-07T10:00:06.549Z,719.63
2018-01-07T10:01:07.016Z,719.58
2018-01-07T10:02:07.489Z,719.68
2018-01-07T10:03:07.965Z,719.64
2018-01-07T10:04:08.438Z,719.53
2018-01-07T10:05:08.912Z,719.56
2018-01-07T10:07:09.856Z,719.54
2018-01-07T10:09:10.793Z,719.58
2018-01-07T10:11:11.742Z,719.61
2018-01-07T10:12:12.218Z,719.60
2018-01-07T10:13:12.684Z,719.64
2018-01-07T10:14:13.162Z,719.60
2018-01-07T10:15:13.633Z,719.72
2018-01-07T10:16:14.104Z,719.69
2018-01-07T10:17:14.577Z,719.65
2018-01-07T10:19:15.524Z,719.58
2018-01-07T10:20:15.991Z,719.68
2018-01-07T10:21:16.466Z,719.69
2018-01-07T10:22:16.939Z,719.64
2018-01-07T10:23:17.412Z,719.66
2018-01-07T10:24:17.883Z,719.63
2018-01-07T10:25:18.352Z,719.56
2018-01-07T10:26:18.829Z,719.62
2018-01-07T10:27:19.300Z,719.65
2018-01-07T10:28:19.773Z,719.71
2018-01-07T10:29:20.245Z,719.61
2018-01-07T10:30:20.717Z,719.71
2018-01-07T10:31:21.190Z,719.62
2018-01-07T10:32:21.657Z,719.71
2018-01-07T10:33:22.185Z,719.75
2018-01-07T10:34:22.609Z,719.80
2018-01-07T10:36:23.546Z,719.71
2018-01-07T10:37:24.024Z,719.82
2018-01-07T10:38:24.498Z,719.79
2018-01-07T10:39:24.969Z,719.79
2018-01-07T10:40:25.444Z,719.77
2018-01-07T10:41:25.919Z,719.77
2018-01-07T10:42:26.388Z,719.73
2018-01-07T10:43:26.855Z,719.73
2018-01-07T10:44:27.332Z,719.82
2018-01-07T10:45:27.804Z,719.74
2018-01-07T10:46:28.276Z,719.74
2018-01-07T10:47:28.746Z,719.73
2018-01-07T10:48:29.222Z,719.71
2018-01-07T10:49:29.693Z,719.71
2018-01-07T10:50:30.166Z,719.82
2018-01-07T10:51:30.639Z,719.84
2018-01-07T10:52:31.111Z,719.79
2018-01-07T10:53:31.583Z,719.78
2018-01-07T10:54:32.052Z,719.78
2018-01-07T10:55:32.529Z,719.75
2018-01-07T10:56:33.000Z,719.70
2018-01-07T10:57:33.475Z,719.73
2018-01-07T10:58:45.787Z,719.70
2018-01-07T10:59:34.420Z,719.63
2018-01-07T11:00:34.887Z,719.67
2018-01-07T11:01:35.365Z,719.72
2018-01-07T11:02:35.836Z,719.68
2018-01-07T11:03:36.311Z,719.68
2018-01-07T11:04:36.784Z,719.66
2018-01-07T11:05:37.269Z,719.68
2018-01-07T11:06:37.732Z,719.69
2018-01-07T11:07:38.201Z,719.73
2018-01-07T11:08:38.875Z,719.66
2018-01-07T11:09:39.144Z,719.66
2018-01-07T11:10:39.615Z,719.73
2018-01-07T11:11:40.090Z,719.76
2018-01-07T11:12:40.562Z,719.71
2018-01-07T11:13:41.037Z,719.67
2018-01-07T11:14:41.504Z,719.64
2018-01-07T11:15:41.982Z,719.74
2018-01-07T11:16:42.452Z,719.64
2018-01-07T11:17:42.926Z,719.65
2018-01-07T11:18:43.398Z,719.71
2018-01-07T11:19:43.871Z,719.61
2018-01-07T11:20:44.343Z,719.71
2018-01-07T11:21:44.818Z,719.71
2018-01-07T11:22:45.284Z,719.65
2018-01-07T11:23:57.752Z,719.68
2018-01-07T11:24:46.234Z,719.68
2018-01-07T11:25:46.706Z,719.69
2018-01-07T11:26:47.174Z,719.68
2018-01-07T11:27:47.652Z,719.58
2018-01-07T11:28:48.175Z,719.58
2018-01-07T11:29:48.599Z,719.60
2018-01-07T11:30:49.070Z,719.66
2018-01-07T11:31:49.551Z,719.61
2018-01-07T11:32:50.015Z,719.64
2018-01-07T11:33:50.486Z,719.53
2018-01-07T11:34:50.960Z,719.59
2018-01-07T11:35:51.433Z,719.53
2018-01-07T11:36:51.906Z,719.56
2018-01-07T11:37:52.382Z,719.65
2018-01-07T11:38:52.905Z,719.50
2018-01-07T11:39:53.325Z,719.61
2018-01-07T11:40:53.796Z,719.51
2018-01-07T11:41:54.269Z,719.54
2018-01-07T11:42:54.742Z,719.53
2018-01-07T11:43:55.217Z,719.62
2018-01-07T11:44:55.683Z,719.60
2018-01-07T11:45:56.162Z,719.45
2018-01-07T11:46:56.636Z,719.45
2018-01-07T11:47:57.107Z,719.52
2018-01-07T11:50:58.526Z,719.57
2018-01-07T11:51:58.993Z,719.53
2018-01-07T11:52:59.469Z,719.42
2018-01-07T11:53:59.946Z,719.42
2018-01-07T11:55:00.416Z,719.43
2018-01-07T11:56:00.886Z,719.42
2018-01-07T11:57:01.381Z,719.46
2018-01-07T11:58:01.834Z,719.40
2018-01-07T11:59:02.308Z,719.54
2018-01-07T12:00:02.780Z,719.42
2018-01-07T12:01:03.252Z,719.44
2018-01-07T12:02:03.727Z,719.37
2018-01-07T12:03:04.194Z,719.35
2018-01-07T12:04:04.672Z,719.40
2018-01-07T12:05:05.144Z,719.40
2018-01-07T12:07:06.086Z,719.39
2018-01-07T12:08:06.569Z,719.36
2018-01-07T12:09:07.035Z,719.42
2018-01-07T12:10:07.560Z,719.38
2018-01-07T12:12:08.456Z,719.52
2018-01-07T12:13:08.927Z,719.46
2018-01-07T12:14:09.400Z,719.36
2018-01-07T12:15:21.810Z,719.39
2018-01-07T12:16:10.346Z,719.46
2018-01-07T12:17:10.819Z,719.37
2018-01-07T12:18:11.292Z,719.43
2018-01-07T12:19:11.765Z,719.41
2018-01-07T12:20:12.238Z,719.40
2018-01-07T12:21:12.711Z,719.40
2018-01-07T12:22:13.189Z,719.46
2018-01-07T12:23:13.660Z,719.37
2018-01-07T12:24:14.130Z,719.33
2018-01-07T12:25:14.601Z,719.31
2018-01-07T12:27:15.548Z,719.41
2018-01-07T12:28:16.018Z,719.37
2018-01-07T12:29:16.492Z,719.35
2018-01-07T12:30:16.962Z,719.34
2018-01-07T12:31:17.441Z,719.37
2018-01-07T12:32:17.918Z,719.41
2018-01-07T12:33:18.387Z,719.35
2018-01-07T12:34:18.854Z,719.32
2018-01-07T12:35:19.335Z,719.32
2018-01-07T12:36:19.806Z,719.29
2018-01-07T12:38:20.751Z,719.41
2018-01-07T12:39:21.225Z,719.36
2018-01-07T12:40:21.701Z,719.34
2018-01-07T12:41:22.165Z,719.48
2018-01-07T12:42:22.643Z,719.40
2018-01-07T12:43:23.115Z,719.41
2018-01-07T12:44:23.588Z,719.42
2018-01-07T12:45:24.064Z,719.37
2018-01-07T12:46:24.538Z,719.40
2018-01-07T12:47:25.009Z,719.32
2018-01-07T12:48:25.480Z,719.32
2018-01-07T12:49:25.953Z,719.38
2018-01-07T12:51:26.899Z,719.32
2018-01-07T12:52:27.374Z,719.36
2018-01-07T12:53:27.844Z,719.40
2018-01-07T12:54:28.319Z,719.41
2018-01-07T12:55:28.788Z,719.28
2018-01-07T12:56:29.266Z,719.35
2018-01-07T12:57:29.739Z,719.34
2018-01-07T12:58:30.212Z,719.34
2018-01-07T12:59:30.685Z,719.43
2018-01-07T13:00:31.159Z,719.41
2018-01-07T13:01:31.629Z,719.42
2018-01-07T13:02:32.099Z,719.44
2018-01-07T13:03:32.573Z,719.33
2018-01-07T13:04:33.051Z,719.50
2018-01-07T13:05:33.569Z,719.42
2018-01-07T13:06:33.997Z,719.42
2018-01-07T13:08:34.942Z,719.42
2018-01-07T13:09:35.414Z,719.48
2018-01-07T13:10:35.888Z,719.53
2018-01-07T13:11:36.363Z,719.42
2018-01-07T13:12:36.839Z,719.45
2018-01-07T13:13:37.311Z,719.43
2018-01-07T13:14:37.788Z,719.41
2018-01-07T13:15:49.888Z,719.55
2018-01-07T13:16:38.730Z,719.50
2018-01-07T13:17:39.199Z,719.47
2018-01-07T13:18:39.674Z,719.47
2018-01-07T13:19:40.147Z,719.49
2018-01-07T13:20:40.624Z,719.50
2018-01-07T13:21:41.091Z,719.42
2018-01-07T13:22:41.567Z,719.50
2018-01-07T13:24:42.510Z,719.26
2018-01-07T13:25:54.871Z,719.47
2018-01-07T13:26:43.460Z,719.50
2018-01-07T13:27:43.935Z,719.51
2018-01-07T13:28:44.406Z,719.44
2018-01-07T13:29:44.884Z,719.33
2018-01-07T13:30:45.352Z,719.54